createdAt,value
2022-10-02T00:02:11.814Z,93.39
2022-10-02T00:07:19.306Z,93.42
2022-10-02T00:12:26.772Z,94.01
2022-10-02T00:17:36.238Z,94.21
2022-10-02T00:22:44.557Z,94.48
2022-10-02T00:27:53.294Z,94.55
2022-10-02T00:33:02.120Z,94.62
2022-10-02T00:38:07.279Z,94.87
2022-10-02T00:43:18.890Z,94.64
2022-10-02T00:48:27.432Z,94.62
2022-10-02T00:54:05.688Z,94.74
2022-10-02T00:59:39.455Z,94.68
2022-10-02T01:04:42.584Z,94.87
2022-10-02T01:09:46.212Z,94.75
2022-10-02T01:14:49.330Z,94.90
2022-10-02T01:19:52.524Z,94.82
2022-10-02T01:24:57.406Z,94.98
2022-10-02T01:30:04.598Z,95.09
2022-10-02T01:35:08.160Z,95.40
2022-10-02T01:40:24.539Z,95.49
2022-10-02T01:45:34.257Z,95.68
2022-10-02T01:50:53.204Z,95.72
2022-10-02T01:56:05.173Z,95.68
2022-10-02T02:01:26.275Z,95.75
2022-10-02T02:06:31.958Z,95.62
2022-10-02T02:11:38.891Z,95.64
2022-10-02T02:16:45.062Z,95.63
2022-10-02T02:21:56.738Z,95.81
2022-10-02T02:27:02.146Z,95.88
2022-10-02T02:32:07.411Z,95.88
2022-10-02T02:37:19.199Z,95.67
2022-10-02T02:42:31.588Z,95.37
2022-10-02T02:47:45.274Z,95.39
2022-10-02T02:52:58.518Z,95.23
2022-10-02T02:58:04.354Z,95.18
2022-10-02T03:03:07.266Z,95.47
2022-10-02T03:08:24.935Z,95.44
2022-10-02T03:13:41.334Z,95.41
2022-10-02T03:19:16.116Z,95.29
2022-10-02T03:24:45.185Z,95.30
2022-10-02T03:30:03.472Z,95.53
2022-10-02T03:35:11.875Z,95.38
2022-10-02T03:40:15.647Z,95.41
2022-10-02T03:45:39.029Z,95.33
2022-10-02T03:50:42.331Z,95.52
2022-10-02T03:56:03.032Z,95.65
2022-10-02T04:01:17.164Z,95.54
2022-10-02T04:06:31.947Z,95.66
2022-10-02T04:11:41.238Z,95.64
2022-10-02T04:16:43.887Z,95.65
2022-10-02T04:22:16.665Z,95.85
2022-10-02T04:27:35.484Z,96.01
2022-10-02T04:32:38.450Z,96.29
2022-10-02T04:37:59.945Z,96.37
2022-10-02T04:43:32.534Z,96.35
2022-10-02T04:48:57.134Z,96.43
2022-10-02T04:54:24.288Z,96.43
2022-10-02T04:59:46.601Z,96.32
2022-10-02T05:04:52.212Z,96.37
2022-10-02T05:09:58.663Z,96.46
2022-10-02T05:15:27.215Z,96.43
2022-10-02T05:20:52.514Z,96.31
2022-10-02T05:26:23.436Z,96.37
2022-10-02T05:31:35.425Z,96.42
2022-10-02T05:37:04.535Z,96.46
2022-10-02T05:42:13.195Z,96.29
2022-10-02T05:47:30.832Z,95.97
2022-10-02T05:52:42.747Z,96.06
2022-10-02T05:57:54.300Z,95.88
2022-10-02T06:03:18.136Z,95.65
2022-10-02T06:08:33.128Z,95.20
2022-10-02T06:13:43.974Z,95.27
2022-10-02T06:18:58.194Z,94.65
2022-10-02T06:24:11.469Z,94.32
2022-10-02T06:29:28.259Z,93.81
2022-10-02T06:34:30.889Z,93.47
2022-10-02T06:39:56.840Z,93.15
2022-10-02T06:45:08.286Z,92.62
2022-10-02T06:50:37.631Z,92.24
2022-10-02T06:55:59.692Z,92.24
2022-10-02T07:01:24.154Z,91.72
2022-10-02T07:06:41.690Z,91.95
2022-10-02T07:12:21.516Z,91.33
2022-10-02T07:17:30.133Z,90.37
2022-10-02T07:22:50.775Z,89.11
2022-10-02T07:28:32.402Z,88.47
2022-10-02T07:33:42.304Z,87.98
2022-10-02T07:38:54.615Z,87.87
2022-10-02T07:44:25.042Z,87.35
2022-10-02T07:49:39.535Z,87.20
2022-10-02T07:55:09.966Z,86.39
2022-10-02T08:00:17.966Z,86.20
2022-10-02T08:05:35.986Z,85.92
2022-10-02T08:10:44.396Z,85.70
2022-10-02T08:15:51.394Z,85.51
2022-10-02T08:20:55.459Z,84.97
2022-10-02T08:26:07.041Z,84.47
2022-10-02T08:31:12.253Z,84.46
2022-10-02T08:36:30.440Z,83.19
2022-10-02T08:41:52.089Z,82.40
2022-10-02T08:46:58.641Z,81.69
2022-10-02T08:52:11.589Z,80.61
2022-10-02T08:57:53.394Z,81.28
2022-10-02T09:03:30.493Z,81.04
2022-10-02T09:09:13.472Z,80.22
2022-10-02T09:14:39.158Z,79.93
2022-10-02T09:19:47.110Z,78.67
2022-10-02T09:24:59.476Z,76.99
2022-10-02T09:30:11.934Z,76.17
2022-10-02T09:35:33.143Z,75.16
2022-10-02T09:40:42.673Z,75.05
2022-10-02T09:46:17.312Z,75.61
2022-10-02T09:51:44.844Z,74.13
2022-10-02T09:57:16.328Z,72.83
2022-10-02T10:02:31.641Z,73.37
2022-10-02T10:07:55.237Z,74.08
2022-10-02T10:13:32.586Z,74.67
2022-10-02T10:18:50.548Z,74.47
2022-10-02T10:24:03.280Z,73.54
2022-10-02T10:29:40.137Z,72.79
2022-10-02T10:35:04.109Z,72.16
2022-10-02T10:40:31.095Z,72.00
2022-10-02T10:45:56.185Z,72.06
2022-10-02T10:51:14.354Z,71.46
2022-10-02T10:56:37.104Z,72.44
2022-10-02T11:02:02.734Z,71.08
2022-10-02T11:07:22.162Z,69.68
2022-10-02T11:12:54.219Z,67.85
2022-10-02T11:18:05.409Z,68.87
2022-10-02T11:23:39.827Z,68.08
2022-10-02T11:29:19.773Z,68.03
2022-10-02T11:34:44.733Z,67.28
2022-10-02T11:40:03.861Z,67.15
2022-10-02T11:45:38.535Z,68.63
2022-10-02T11:50:59.702Z,68.03
2022-10-02T11:56:42.237Z,68.11
2022-10-02T12:02:08.519Z,67.97
2022-10-02T12:07:38.841Z,68.41
2022-10-02T12:12:41.554Z,68.41
2022-10-02T12:17:54.595Z,68.35
2022-10-02T12:24:23.346Z,68.10
2022-10-02T12:29:56.426Z,66.96
2022-10-02T12:35:20.774Z,69.14
2022-10-02T12:40:32.798Z,72.75
2022-10-02T12:45:59.119Z,75.49
2022-10-02T12:51:17.135Z,77.68
2022-10-02T12:56:49.337Z,78.83
2022-10-02T13:01:52.334Z,79.52
2022-10-02T13:07:26.330Z,79.88
2022-10-02T13:12:51.651Z,80.49
2022-10-02T13:17:58.855Z,80.73
2022-10-02T13:23:25.422Z,81.00
2022-10-02T13:28:37.065Z,81.75
2022-10-02T13:33:48.967Z,82.40
2022-10-02T13:39:22.423Z,83.09
2022-10-02T13:44:44.348Z,83.83
2022-10-02T13:50:16.711Z,84.24
2022-10-02T13:55:31.028Z,84.74
2022-10-02T14:00:55.078Z,85.33
2022-10-02T14:06:15.648Z,85.27
2022-10-02T14:11:57.086Z,83.99
2022-10-02T14:17:26.873Z,83.81
2022-10-02T14:22:36.943Z,83.35
2022-10-02T14:28:08.125Z,82.79
2022-10-02T14:34:03.826Z,82.50
2022-10-02T14:39:19.506Z,82.70
2022-10-02T14:44:57.980Z,83.23
2022-10-02T14:50:22.543Z,84.07
2022-10-02T14:55:43.408Z,84.95
2022-10-02T15:12:44.071Z,85.26
2022-10-02T15:18:00.679Z,85.53
2022-10-02T15:23:28.851Z,85.86
2022-10-02T15:29:12.953Z,86.15
2022-10-02T15:34:36.083Z,86.39
2022-10-02T15:39:57.252Z,86.63
2022-10-02T15:50:54.597Z,87.72
2022-10-02T15:56:26.110Z,88.28
2022-10-02T16:07:14.291Z,89.13
2022-10-02T16:24:59.825Z,90.00
2022-10-02T16:30:23.572Z,90.60
2022-10-02T16:35:44.017Z,90.67
2022-10-02T16:41:22.499Z,90.73
2022-10-02T16:46:41.095Z,91.01
2022-10-02T16:58:33.221Z,91.18
2022-10-02T17:04:16.956Z,91.07
2022-10-02T17:09:44.221Z,91.03
2022-10-02T17:15:45.032Z,90.74
2022-10-02T17:21:02.810Z,90.85
2022-10-02T17:26:38.992Z,90.98
2022-10-02T17:37:41.618Z,91.96
2022-10-02T17:43:26.118Z,92.14
2022-10-02T17:49:14.172Z,92.35
2022-10-02T17:54:48.227Z,92.47
2022-10-02T18:00:14.390Z,92.40
2022-10-02T18:05:47.080Z,92.66
2022-10-02T18:11:06.041Z,92.91
2022-10-02T18:16:29.833Z,92.94
2022-10-02T18:21:33.078Z,92.76
2022-10-02T18:27:13.394Z,93.14
2022-10-02T18:32:29.097Z,93.27
2022-10-02T18:37:35.629Z,93.29
2022-10-02T18:43:03.932Z,93.25
2022-10-02T18:48:34.888Z,93.25
2022-10-02T18:54:12.949Z,93.22
2022-10-02T18:59:32.502Z,93.17
2022-10-02T19:05:04.605Z,93.32
2022-10-02T19:10:21.662Z,93.36
2022-10-02T19:15:32.419Z,93.47
2022-10-02T19:20:49.348Z,93.43
2022-10-02T19:25:56.156Z,93.50
2022-10-02T19:31:03.932Z,93.61
2022-10-02T19:36:13.622Z,94.07
2022-10-02T19:41:17.278Z,93.70
2022-10-02T19:46:29.399Z,94.00
2022-10-02T19:51:43.014Z,94.15
2022-10-02T19:56:46.570Z,94.15
2022-10-02T20:01:54.968Z,94.45
2022-10-02T20:07:00.639Z,95.10
2022-10-02T20:12:14.708Z,95.10
2022-10-02T20:17:19.229Z,94.96
2022-10-02T20:22:34.479Z,95.42
2022-10-02T20:27:51.971Z,95.58
2022-10-02T20:33:02.013Z,95.64
2022-10-02T20:38:26.333Z,95.98
2022-10-02T20:43:41.125Z,96.51
2022-10-02T20:49:09.345Z,96.30
2022-10-02T20:54:23.365Z,97.01
2022-10-02T20:59:48.295Z,96.99
2022-10-02T21:05:39.216Z,97.86
2022-10-02T21:11:06.742Z,97.60
2022-10-02T21:16:25.579Z,98.14
2022-10-02T21:21:44.077Z,98.32
2022-10-02T21:27:09.926Z,98.13
2022-10-02T21:32:42.880Z,98.15
2022-10-02T21:38:21.370Z,98.45
2022-10-02T21:43:42.483Z,98.36
2022-10-02T21:49:06.774Z,98.06
2022-10-02T21:54:58.786Z,98.10
2022-10-02T22:00:08.151Z,98.15
2022-10-02T22:05:31.857Z,98.41
2022-10-02T22:10:40.825Z,97.93
2022-10-02T22:15:55.365Z,97.85
2022-10-02T22:21:17.033Z,97.79
2022-10-02T22:26:35.021Z,97.77
2022-10-02T22:32:16.862Z,97.87
2022-10-02T22:37:38.964Z,97.87
2022-10-02T22:42:49.777Z,97.78
2022-10-02T22:48:05.299Z,97.97
2022-10-02T22:53:16.884Z,97.80
2022-10-02T22:58:24.284Z,97.83
2022-10-02T23:03:33.494Z,97.72
2022-10-02T23:08:54.919Z,97.64
2022-10-02T23:14:07.507Z,97.77
2022-10-02T23:19:12.963Z,97.44
2022-10-02T23:24:24.930Z,97.29
2022-10-02T23:29:52.616Z,97.31
2022-10-02T23:35:15.768Z,97.53
2022-10-02T23:40:49.348Z,97.54
2022-10-02T23:46:09.684Z,97.41
2022-10-02T23:51:20.915Z,97.43
2022-10-02T23:56:42.174Z,97.36
